Terminal Aerodrome Forecast
Issued by NWS

Current Version | Previous Version | Text Only | Print | Product List | Glossary Off
Versions: 1 2 3 4 5 6 7 8 9 10 11 12 13 14 15 16

217
FTUS41 KPBZ 241120
TAFMGW
TAF
KMGW 241120Z 2412/2512 08006KT P6SM -RA BKN060
     FM241600 10010G20KT P6SM -RA OVC050
     FM250100 10007KT P6SM OVC040=

USA.gov is the U.S. government's official web portal to all federal, state and local government web resources and services.